Main page
METAR-TAF:

METAR-TAF

Airports :

Rabat–Salé Airport

Rabat, Morocco

latitude: 34-03N, longitude: 006-46W, elevation: 84 m

Current weather observation

The report was made 12 minutes ago, at 17:00 UTC
Wind 10 kt from the North/Northeast
Temperature 23°C
Humidity 50%
Pressure 1016 hPa
Visibility: 5000 m

METAR: GMME 281700Z 02010KT 5000 NSC 23/12 Q1016 NOSIG

Time: 17:12 (17:12 UTC)

Forecast

The report was made 6 hours and 12 minutes ago, at 11:00 UTC
Forecast valid from 28 at 12 UTC to 29 at 18 UTC
Wind 10 kt from the North/Northwest
Visibility: 6000 m
Temporary
from 28 at 18 UTC to 28 at 23 UTC
Wind 2 kt from variable directions
Visibility: 3000 m
Broken clouds at a height of 500 ft
mist

TAF: GMME 281100Z 2812/2918 34010KT 6000 NSC TEMPO 2818/2823 VRB02KT 3000 BR BKN005

Weather observations and forecasts of more than 4000 airports (METAR and TAF reports).

The available stations are represented by yellow and red dots on the map.

Hover mouse over dot to see the name of the station.

Then click to see weather observations and forecasts.

To change the map : click on the green buttons with a black cross to zoom in, on the green button with a dash to zoom out, or on the green arrows for adjacent maps.


METAR-TAF: